• Join FlightAware (Why Join?)
  • Login
  • US Flag 
08:04AM EDT


 

Airport Tracker/Info


-or-


 

Live Flight TrackerFlight Track Log ✈ RPA3242 ✈ 16 de May de 2013 ✈ KDTW - KPHL

Flight Track Log - Related Links

Times and Time Zones

All times are in EDT time to prevent confusion due to time zone crossing. See the RPA3242 flight status page for this flight to view local times or setup timezone preferences in your user account.

Time Position Orientation Groundspeed Altitude Reporting Facility
EDT Latitude Longitude Course Direction KTS MPH feet Rate Location/Type
06:22PM 42.2314 -83.3342 43° Northeast 141 162 1,200  Level Cleveland Center
06:23PM 42.2464 -83.3153 43° Northeast 155 178 2,100 1,620 Climbing Cleveland Center
06:24PM 42.2833 -83.2550 50° Northeast 240 276 3,700 2,100 Climbing Cleveland Center
06:24PM 42.3206 -83.1781 57° Northeast 284 327 6,200 2,160 Climbing Cleveland Center
06:26PM 42.2853 -83.0672 113° Southeast 302 348 8,200 1,860 Climbing Cleveland Center
06:26PM 42.2672 -83.0383 130° Southeast 308 354 8,800 2,340 Climbing Cleveland Center
06:27PM 42.2256 -82.9358 119° Southeast 337 388 11,200 2,220 Climbing Cleveland Center
06:28PM 42.2031 -82.8117 104° East 343 395 13,300 2,280 Climbing Cleveland Center
06:29PM 42.2119 -82.6744 85° East 343 395 15,800 2,400 Climbing Cleveland Center
06:30PM 42.2186 -82.5289 86° East 363 418 18,100 2,040 Climbing Cleveland Center
06:31PM 42.2169 -82.3803 91° East 378 435 19,900 1,920 Climbing Cleveland Center
06:32PM 42.2067 -82.2231 95° East 399 459 22,000 1,860 Climbing Cleveland Center
06:33PM 42.1983 -82.0631 94° East 421 484 23,700 1,500 Climbing Cleveland Center
06:34PM 42.1586 -81.9108 109° East 431 496 25,100 1,500 Climbing Cleveland Center
06:35PM 42.0764 -81.8056 136° Southeast 442 509 26,700 1,440 Climbing Cleveland Center
06:36PM 41.9775 -81.6919 139° Southeast 449 517 28,000 1,200 Climbing Cleveland Center
06:37PM 41.8806 -81.5817 140° Southeast 463 533 29,200 1,140 Climbing Cleveland Center
06:38PM 41.7814 -81.4631 138° Southeast 468 539 30,300 900 Climbing Cleveland Center
06:39PM 41.6803 -81.3506 140° Southeast 468 539 31,000 540 Climbing Cleveland Center
06:40PM 41.5706 -81.2269 140° Southeast 473 544 31,400 480 Climbing Cleveland Center
06:41PM 41.4753 -81.1069 137° Southeast 473 544 32,000 600 Climbing Cleveland Center
06:42PM 41.3861 -80.9817 133° Southeast 468 539 32,700 480 Climbing Cleveland Center
06:43PM 41.2967 -80.8622 135° Southeast 462 532 33,000 120 Climbing Cleveland Center
06:44PM 41.2094 -80.7378 133° Southeast 462 532 33,000  Level Cleveland Center
06:45PM 41.1303 -80.6272 134° Southeast 457 526 33,000  Level Cleveland Center
06:46PM 41.0428 -80.5061 134° Southeast 457 526 33,000  Level Cleveland Center
06:47PM 40.9531 -80.3853 134° Southeast 457 526 33,000  Level Cleveland Center
06:48PM 40.8653 -80.2647 134° Southeast 457 526 33,000  Level Cleveland Center
06:49PM 40.7917 -80.1250 125° Southeast 462 532 33,000  Level Cleveland Center
06:50PM 40.7367 -79.9667 115° Southeast 462 532 33,000  Level Cleveland Center
06:51PM 40.6794 -79.8083 115° Southeast 467 537 33,000  Level Cleveland Center
06:52PM 40.6242 -79.6531 115° Southeast 467 537 33,000  Level Cleveland Center
06:53PM 40.5644 -79.5008 117° Southeast 467 537 33,000  Level Cleveland Center
06:54PM 40.5189 -79.3239 109° East 462 532 33,000  Level Cleveland Center
06:55PM 40.4961 -79.1714 101° East 462 532 33,000  Level Cleveland Center
06:56PM 40.4711 -79.0000 101° East 467 537 33,000  Level Cleveland Center
06:57PM 40.4433 -78.8125 101° East 475 547 33,000  Level Cleveland Center
06:58PM 40.4175 -78.6414 101° East 475 547 33,000 -900 Level Cleveland Center
06:59PM 40.3917 -78.4758 102° East 475 547 31,300 -1,920 Descending Cleveland Center
07:01PM 40.3444 -78.1681 101° East 487 560 27,400 -2,160 Descending New York Center
07:02PM 40.3142 -77.9822 102° East 492 566 25,100 -1,620 Descending New York Center
07:03PM 40.2942 -77.7978 98° East 487 560 24,200 -1,020 Descending New York Center
07:04PM 40.2767 -77.6328 98° East 476 548 23,100 -1,140 Descending New York Center
07:05PM 40.2569 -77.4703 99° East 463 533 22,000 -1,140 Descending New York Center
07:06PM 40.2408 -77.3083 97° East 452 520 20,900 -1,080 Descending New York Center
07:07PM 40.2217 -77.1650 100° East 446 513 19,900 -1,200 Descending New York Center
07:08PM 40.2039 -76.9894 97° East 446 513 18,600 -1,140 Descending New York Center
07:09PM 40.1861 -76.8519 100° East 439 505 17,700 -1,080 Descending New York Center
07:10PM 40.1686 -76.7008 99° East 428 493 16,500 -1,200 Descending New York Center
07:11PM 40.1514 -76.5472 98° East 423 487 15,400 -1,200 Descending New York Center
07:12PM 40.1319 -76.3856 99° East 413 475 14,200 -1,260 Descending New York Center
07:13PM 40.1194 -76.2569 97° East 408 470 12,900 -1,500 Descending New York Center
07:14PM 40.1072 -76.1119 96° East 385 443 11,300 -1,380 Descending New York Center
07:15PM 40.0972 -76.0081 97° East 337 388 10,200 -1,200 Descending New York Center
07:16PM 40.0900 -75.8908 95° East 306 352 8,900 -1,200 Descending New York Center
07:17PM 40.0836 -75.7928 95° East 295 339 7,800 -960 Descending New York Center
07:18PM 40.0778 -75.6839 94° East 285 328 7,000 -420 Descending New York Center
07:19PM 40.0853 -75.6031 83° East 258 297 7,000 -240 Level New York Center
07:20PM 40.0978 -75.5061 80° East 251 289 6,600 -540 Descending New York Center
07:21PM 40.0925 -75.4244 95° East 251 289 6,000 -300 Descending New York Center
07:22PM 40.0650 -75.3303 111° Southeast 251 289 6,000  Level New York Center
07:23PM 40.0500 -75.2500 104° East 259 298 6,000  Level Philadelphia TRACON
07:24PM 40.0167 -75.1667 118° Southeast 255 293 6,000 -60 Level Philadelphia TRACON
07:25PM 40.0000 -75.0833 105° East 224 258 5,900 -720 Descending Philadelphia TRACON
07:26PM 40.0000 -75.0167 90° East 215 247 4,600 -960 Descending Philadelphia TRACON
07:27PM 40.0000 -74.9500 90° East 200 230 4,000 -240 Descending Philadelphia TRACON
07:28PM 39.9333 -74.9333 169° South 183 211 4,100 -240 Climbing Philadelphia TRACON
07:29PM 39.9167 -74.9833 247° West 160 184 3,600 -720 Descending Philadelphia TRACON
07:30PM 39.9167 -75.0500 270° West 163 188 2,700 -900 Descending Philadelphia TRACON
07:31PM 39.9000 -75.1000 247° West 163 188 1,900 -900 Descending Philadelphia TRACON
07:32PM 39.8833 -75.1667 252° West 151 174 1,000 -780 Descending Philadelphia TRACON
07:33PM 39.8833 -75.2000 270° West 124 143 400 -600 Descending Philadelphia TRACON
07:35PM 39.8667 -75.2333 247° West  Level FlightAware Approximate